createdAt,value
2023-04-03T00:00:01.762Z,102442.41
2023-04-03T00:02:28.245Z,102447.09
2023-04-03T00:04:54.749Z,102444.22
2023-04-03T00:07:21.209Z,102454.31
2023-04-03T00:09:47.612Z,102451.75
2023-04-03T00:12:14.008Z,102455.97
2023-04-03T00:14:40.443Z,102451.13
2023-04-03T00:17:06.946Z,102449.47
2023-04-03T00:19:33.413Z,102450.06
2023-04-03T00:21:59.829Z,102452.34
2023-04-03T00:24:26.265Z,102460.00
2023-04-03T00:26:52.742Z,102451.28
2023-04-03T00:29:19.164Z,102452.75
2023-04-03T00:31:46.291Z,102447.34
2023-04-03T00:34:12.752Z,102455.63
2023-04-03T00:36:39.239Z,102462.69
2023-04-03T00:39:05.715Z,102460.88
2023-04-03T00:41:32.844Z,102468.56
2023-04-03T00:43:59.274Z,102473.50
2023-04-03T00:46:25.698Z,102464.94
2023-04-03T00:48:52.160Z,102474.72
2023-04-03T00:51:25.359Z,102473.94
2023-04-03T00:53:55.939Z,102482.34
2023-04-03T00:56:24.793Z,102479.63
2023-04-03T00:59:04.208Z,102480.84
2023-04-03T01:01:31.624Z,102485.06
2023-04-03T01:04:00.743Z,102478.44
2023-04-03T01:06:29.574Z,102480.25
2023-04-03T01:08:56.530Z,102481.56
2023-04-03T01:11:23.285Z,102483.81
2023-04-03T01:13:50.285Z,102481.09
2023-04-03T01:16:16.871Z,102489.81
2023-04-03T01:18:43.869Z,102493.28
2023-04-03T01:21:22.448Z,102491.63
2023-04-03T01:24:00.813Z,102494.03
2023-04-03T01:26:29.198Z,102499.13
2023-04-03T01:28:56.430Z,102490.56
2023-04-03T01:31:29.881Z,102494.03
2023-04-03T01:33:56.665Z,102494.56
2023-04-03T01:36:26.098Z,102497.56
2023-04-03T01:38:53.639Z,102497.44
2023-04-03T01:41:22.012Z,102494.88
2023-04-03T01:43:49.424Z,102489.59
2023-04-03T01:46:17.187Z,102496.22
2023-04-03T01:48:43.819Z,102497.56
2023-04-03T01:51:10.501Z,102493.59
2023-04-03T01:53:36.915Z,102496.59
2023-04-03T01:56:03.566Z,102501.72
2023-04-03T01:58:29.987Z,102507.97
2023-04-03T02:00:56.757Z,102510.88
2023-04-03T02:03:23.238Z,102515.47
2023-04-03T02:05:50.636Z,102518.19
2023-04-03T02:08:18.940Z,102518.78
2023-04-03T02:10:48.575Z,102519.38
2023-04-03T02:13:15.468Z,102513.94
2023-04-03T02:15:42.043Z,102513.06
2023-04-03T02:18:09.082Z,102515.44
2023-04-03T02:20:35.859Z,102513.94
2023-04-03T02:23:02.626Z,102517.56
2023-04-03T02:25:29.228Z,102511.41
2023-04-03T02:27:55.695Z,102520.56
2023-04-03T02:30:22.418Z,102520.72
2023-04-03T02:32:48.847Z,102521.31
2023-04-03T02:35:15.291Z,102521.72
2023-04-03T02:37:42.049Z,102517.34
2023-04-03T02:40:09.118Z,102525.00
2023-04-03T02:42:35.845Z,102530.69
2023-04-03T02:45:02.307Z,102529.81
2023-04-03T02:47:29.018Z,102527.69
2023-04-03T02:49:55.538Z,102529.00
2023-04-03T02:52:22.023Z,102536.16
2023-04-03T02:54:48.511Z,102532.88
2023-04-03T02:57:15.208Z,102537.06
2023-04-03T02:59:41.694Z,102533.47
2023-04-03T03:02:09.070Z,102539.91
2023-04-03T03:04:36.214Z,102538.25
2023-04-03T03:07:02.878Z,102542.44
2023-04-03T03:09:30.402Z,102540.66
2023-04-03T03:11:57.783Z,102546.88
2023-04-03T03:14:24.558Z,102545.25
2023-04-03T03:16:51.117Z,102544.34
2023-04-03T03:19:17.545Z,102535.94
2023-04-03T03:21:43.989Z,102541.03
2023-04-03T03:24:10.419Z,102546.72
2023-04-03T03:26:36.950Z,102550.94
2023-04-03T03:29:03.487Z,102554.38
2023-04-03T03:31:29.913Z,102553.16
2023-04-03T03:33:56.351Z,102556.88
2023-04-03T03:36:23.022Z,102553.09
2023-04-03T03:38:49.474Z,102560.91
2023-04-03T03:41:15.997Z,102550.53
2023-04-03T03:43:42.570Z,102549.00
2023-04-03T03:46:09.024Z,102546.13
2023-04-03T03:48:35.680Z,102545.03
2023-04-03T03:51:02.123Z,102547.25
2023-04-03T03:53:28.574Z,102554.56
2023-04-03T03:55:55.462Z,102557.88
2023-04-03T03:58:21.893Z,102557.94
2023-04-03T04:00:48.288Z,102551.59
2023-04-03T04:03:14.800Z,102551.44
2023-04-03T04:05:41.301Z,102548.56
2023-04-03T04:08:07.704Z,102551.13
2023-04-03T04:10:35.260Z,102567.59
2023-04-03T04:13:01.691Z,102563.41
2023-04-03T04:15:28.167Z,102570.31
2023-04-03T04:17:54.714Z,102570.84
2023-04-03T04:20:21.423Z,102572.91
2023-04-03T04:22:47.878Z,102570.53
2023-04-03T04:25:14.337Z,102577.09
2023-04-03T04:27:40.804Z,102576.84
2023-04-03T04:30:07.830Z,102581.19
2023-04-03T04:32:34.269Z,102578.84
2023-04-03T04:35:00.788Z,102587.03
2023-04-03T04:37:27.228Z,102581.94
2023-04-03T04:39:53.654Z,102584.50
2023-04-03T04:42:20.248Z,102585.63
2023-04-03T04:44:46.673Z,102588.94
2023-04-03T04:47:13.076Z,102593.47
2023-04-03T04:49:39.529Z,102584.50
2023-04-03T04:52:06.085Z,102590.31
2023-04-03T04:54:32.520Z,102588.53
2023-04-03T04:56:59.033Z,102592.88
2023-04-03T04:59:25.781Z,102594.16
2023-04-03T05:01:52.281Z,102597.75
2023-04-03T05:04:18.889Z,102601.22
2023-04-03T05:06:45.538Z,102608.88
2023-04-03T05:09:12.174Z,102612.81
2023-04-03T05:11:38.802Z,102613.50
2023-04-03T05:14:07.421Z,102619.88
2023-04-03T05:16:34.718Z,102610.97
2023-04-03T05:19:01.276Z,102611.63
2023-04-03T05:21:30.179Z,102615.44
2023-04-03T05:23:56.658Z,102608.84
2023-04-03T05:26:23.071Z,102609.00
2023-04-03T05:28:49.530Z,102608.59
2023-04-03T05:31:16.116Z,102605.06
2023-04-03T05:33:42.560Z,102598.94
2023-04-03T05:36:09.343Z,102607.09
2023-04-03T05:38:35.996Z,102610.91
2023-04-03T05:41:02.669Z,102606.28
